Rechercher aéroport 
image banner adimage banner adimage banner ad
image banner ad

30PN - Pittsburgh Children's Hospital

Situé à Pittsburgh, United States

ICAO - 30PN, IATA -

Données fournies par Airmate  

Information générale

Coordonnées: N40°27'60" W79°57'10"
Élévation : 1088 feet MSL.
Variation magnétique : -09° East
Voir autres Aéroports à Pennsylvania

Données opérationnelles

Special qualification required
Heure actuelle UTC:
Heure actuelle locale:
Météo à : KAGC - Allegheny County ( 13 km )
METAR: KAGC 292153Z 25008KT 7SM SCT085 26/21 A2984 RMK AO2 LTG DSNT S AND W SLP101 T02610211
TAF: KAGC 291901Z 2919/3018 23012G16KT P6SM BKN015 FM292100 25012G16KT P6SM VCTS BKN030CB TEMPO 2921/2923 VRB25G40KT 4SM -TSRA OVC035CB FM300500 29006KT P6SM BKN040 FM301000 32007KT P6SM BKN015 FM301400 33007KT P6SM SCT025
Voir NOTAMs / SUP AIP / TFR affectant cet aéroport [VIEW]
Fréquences de communication: [VIEW]

Pistes:

Coordonnées de l'aéroport

Adresse: Pittsburgh United States

Vue satellite de 30PN